This is the latest recevied weather packets stored in our database for station/object CE1JFB-10. If no packets are shown the sender has not sent any weather packets the latest 10 day(s).
| Time | Temp. | Humidity | Pressure | Rain* | Wind** | Luminosity | Snow |
|---|---|---|---|---|---|---|---|
| 1787987039 | 21.67° C | 61% | 1012.4 hPa | - | - | - | - |
| 1787983439 | 21.67° C | 62% | 1013 hPa | - | - | - | - |
| 1787979839 | 21.67° C | 61% | 1013.6 hPa | - | - | - | - |
| 1787976239 | 22.22° C | 59% | 1014.2 hPa | - | - | - | - |
| 1787972639 | 22.22° C | 60% | 1014.4 hPa | - | - | - | - |
| 1787969039 | 22.22° C | 59% | 1014.5 hPa | - | - | - | - |
| 1787965438 | 22.22° C | 57% | 1014.4 hPa | - | - | - | - |
| 1787961838 | 22.22° C | 58% | 1014.2 hPa | - | - | - | - |
| 1787958238 | 23.33° C | 55% | 1013.5 hPa | - | - | - | - |
| 1787954638 | 22.78° C | 57% | 1013.1 hPa | - | - | - | - |
| 1787951038 | 22.78° C | 57% | 1012.8 hPa | - | - | - | - |
| 1787947438 | 22.78° C | 56% | 1012.1 hPa | - | - | - | - |
| 1787943838 | 23.89° C | 54% | 1011.4 hPa | - | - | - | - |
| 1787940238 | 23.89° C | 54% | 1011.6 hPa | - | - | - | - |
| 1787936638 | 23.89° C | 54% | 1012.3 hPa | - | - | - | - |
| 1787933037 | 23.33° C | 56% | 1013.5 hPa | - | - | - | - |
| 1787929437 | 22.22° C | 60% | 1014.5 hPa | - | - | - | - |
| 1787925837 | 21.67° C | 63% | 1014.7 hPa | - | - | - | - |
| 1787922237 | 21.67° C | 64% | 1014.3 hPa | - | - | - | - |
| 1787918637 | 21.11° C | 65% | 1013.9 hPa | - | - | - | - |
| 1787915037 | 21.11° C | 66% | 1013.2 hPa | - | - | - | - |
| 1787911437 | 21.11° C | 65% | 1012.4 hPa | - | - | - | - |
| 1787907837 | 21.11° C | 65% | 1012.2 hPa | - | - | - | - |
| 1787904237 | 21.11° C | 64% | 1012.6 hPa | - | - | - | - |
| 1787900637 | 21.11° C | 63% | 1012.8 hPa | - | - | - | - |
* Rain since midnight (hover to see other rain measurements)
** Current wind speed in m/s (hover to see current wind gust speed)